Terminal Aerodrome Forecast
Issued by NWS Louisville, KY

Home | Current Version | Previous Version | Text Only | Print | Product List | Glossary On
Versions: 1 2 3 4 5 6 7 8 9 10 11 12 13 14 15 16 17 18 19 20 21 22 23 24 25
102
FTUS43 KLMK 150953 AAA
TAFLEX
TAF AMD
KLEX 150953Z 1510/1606 04005KT 1/4SM FG VV002
     FM151700 06004KT 2SM -RA BR OVC003
     FM160100 07006KT 2SM -DZ BR OVC006=

USA.gov is the U.S. government's official web portal to all federal, state and local government web resources and services.